createdAt,value
2022-10-18T00:01:01.525Z,48.40
2022-10-18T00:06:05.426Z,46.07
2022-10-18T00:11:08.240Z,51.30
2022-10-18T00:16:14.424Z,46.23
2022-10-18T00:21:20.271Z,45.70
2022-10-18T00:26:25.829Z,39.00
2022-10-18T00:31:32.924Z,46.87
2022-10-18T00:36:35.470Z,51.47
2022-10-18T00:41:38.462Z,46.63
2022-10-18T00:46:47.365Z,44.83
2022-10-18T00:51:52.744Z,50.20
2022-10-18T00:56:55.217Z,46.33
2022-10-18T01:01:57.666Z,48.90
2022-10-18T01:07:00.095Z,50.97
2022-10-18T01:12:47.636Z,50.50
2022-10-18T01:17:52.803Z,43.90
2022-10-18T01:23:07.957Z,49.93
2022-10-18T01:28:29.816Z,52.13
2022-10-18T01:33:51.113Z,45.30
2022-10-18T01:38:57.581Z,43.30
2022-10-18T01:44:03.166Z,49.03
2022-10-18T01:49:05.823Z,51.13
2022-10-18T01:54:10.149Z,42.10
2022-10-18T01:59:20.878Z,54.23
2022-10-18T02:04:23.184Z,42.07
2022-10-18T02:09:38.601Z,45.97
2022-10-18T02:14:44.192Z,54.40
2022-10-18T02:19:50.860Z,48.50
2022-10-18T02:24:56.951Z,48.93
2022-10-18T02:29:59.426Z,46.20
2022-10-18T02:35:11.668Z,45.20
2022-10-18T02:40:14.542Z,49.73
2022-10-18T02:45:17.369Z,42.93
2022-10-18T02:50:19.754Z,42.20
2022-10-18T02:55:22.208Z,39.83
2022-10-18T03:00:24.708Z,41.77
2022-10-18T03:05:27.126Z,42.97
2022-10-18T03:10:29.532Z,35.80
2022-10-18T03:15:31.882Z,40.97
2022-10-18T03:20:34.778Z,42.30
2022-10-18T03:25:37.191Z,35.30
2022-10-18T03:30:39.598Z,36.53
2022-10-18T03:35:42.251Z,38.00
2022-10-18T03:40:44.661Z,45.00
2022-10-18T03:45:47.078Z,40.30
2022-10-18T03:50:49.519Z,40.63
2022-10-18T03:55:53.469Z,37.83
2022-10-18T04:00:56.043Z,34.17
2022-10-18T04:06:00.705Z,40.93
2022-10-18T04:11:08.623Z,41.97
2022-10-18T04:16:11.062Z,47.77
2022-10-18T04:21:13.626Z,52.70
2022-10-18T04:26:19.237Z,42.13
2022-10-18T04:31:21.656Z,38.70
2022-10-18T04:36:24.118Z,45.43
2022-10-18T04:41:26.571Z,48.37
2022-10-18T04:46:29.111Z,47.50
2022-10-18T04:51:31.556Z,47.83
2022-10-18T04:56:34.149Z,42.97
2022-10-18T05:01:36.720Z,47.10
2022-10-18T05:06:39.266Z,50.00
2022-10-18T05:11:41.611Z,38.57
2022-10-18T05:16:43.945Z,43.53
2022-10-18T05:21:46.422Z,54.27
2022-10-18T05:26:48.778Z,54.17
2022-10-18T05:31:51.475Z,48.37
2022-10-18T05:36:53.872Z,45.87
2022-10-18T05:41:56.758Z,53.93
2022-10-18T05:46:59.129Z,68.47
2022-10-18T05:52:01.582Z,74.13
2022-10-18T05:57:04.033Z,80.87
2022-10-18T06:02:06.949Z,74.90
2022-10-18T06:07:11.371Z,81.23
2022-10-18T06:12:13.802Z,79.03
2022-10-18T06:17:16.351Z,80.83
2022-10-18T06:22:18.736Z,77.83
2022-10-18T06:27:21.173Z,73.70
2022-10-18T06:32:23.570Z,91.47
2022-10-18T06:37:26.012Z,85.80
2022-10-18T06:42:28.832Z,75.93
2022-10-18T06:47:31.176Z,77.03
2022-10-18T06:52:33.766Z,83.27
2022-10-18T06:57:36.415Z,78.97
2022-10-18T07:02:41.387Z,68.87
2022-10-18T07:07:43.761Z,66.23
2022-10-18T07:12:46.088Z,76.80
2022-10-18T07:17:49.186Z,77.27
2022-10-18T07:22:55.677Z,85.37
2022-10-18T07:27:58.187Z,89.50
2022-10-18T07:33:00.522Z,83.73
2022-10-18T07:38:02.824Z,91.30
2022-10-18T07:43:06.250Z,88.30
2022-10-18T07:48:09.984Z,85.83
2022-10-18T07:53:12.460Z,93.27
2022-10-18T07:58:14.917Z,83.20
2022-10-18T08:03:17.242Z,75.30
2022-10-18T08:08:21.118Z,70.73
2022-10-18T08:13:23.651Z,62.43
2022-10-18T08:18:26.112Z,64.63
2022-10-18T08:23:29.151Z,64.17
2022-10-18T08:28:31.767Z,57.83
2022-10-18T08:33:35.884Z,58.33
2022-10-18T08:38:39.994Z,62.23
2022-10-18T08:43:53.718Z,56.13
2022-10-18T08:48:57.143Z,60.47
2022-10-18T08:54:22.852Z,59.57
2022-10-18T08:59:25.716Z,61.40
2022-10-18T09:04:54.889Z,52.20
2022-10-18T09:10:21.539Z,52.53
2022-10-18T09:15:42.873Z,59.97
2022-10-18T09:20:58.639Z,51.13
2022-10-18T09:26:13.871Z,53.43
2022-10-18T09:31:25.540Z,55.30
2022-10-18T09:36:37.853Z,59.97
2022-10-18T09:41:40.326Z,59.57
2022-10-18T09:46:49.822Z,47.17
2022-10-18T09:51:54.379Z,70.00
2022-10-18T09:57:05.578Z,70.13
2022-10-18T10:02:14.775Z,68.60
2022-10-18T10:07:24.171Z,70.93
2022-10-18T10:12:35.738Z,73.53
2022-10-18T10:17:38.148Z,50.30
2022-10-18T10:22:42.505Z,42.83
2022-10-18T10:27:46.024Z,56.23
2022-10-18T10:32:49.884Z,44.63
2022-10-18T10:37:53.705Z,49.73
2022-10-18T10:43:37.675Z,42.43
2022-10-18T10:49:21.783Z,44.50
2022-10-18T10:54:26.085Z,46.23
2022-10-18T10:59:32.537Z,47.37
2022-10-18T11:04:35.042Z,50.20
2022-10-18T11:10:08.459Z,49.27
2022-10-18T11:15:12.054Z,49.23
2022-10-18T11:20:32.858Z,45.37
2022-10-18T11:25:52.449Z,52.40
2022-10-18T11:31:31.244Z,45.43
2022-10-18T11:36:45.486Z,34.50
2022-10-18T11:42:40.281Z,33.83
2022-10-18T11:48:24.715Z,31.53
2022-10-18T11:53:35.938Z,21.20
2022-10-18T11:58:42.832Z,14.47
2022-10-18T12:04:14.323Z,16.23
2022-10-18T12:09:31.328Z,13.53
2022-10-18T12:14:40.435Z,9.67
2022-10-18T12:19:43.489Z,13.03
2022-10-18T12:24:45.874Z,10.07
2022-10-18T12:29:56.162Z,8.03
2022-10-18T12:35:04.739Z,9.63
2022-10-18T12:40:24.536Z,9.60
2022-10-18T12:45:35.521Z,8.30
2022-10-18T12:50:43.179Z,6.50
2022-10-18T12:55:49.406Z,6.50
2022-10-18T13:00:53.866Z,6.03
2022-10-18T13:06:02.920Z,15.70
2022-10-18T13:11:08.885Z,12.53
2022-10-18T13:16:23.047Z,11.30
2022-10-18T13:21:34.709Z,12.43
2022-10-18T13:27:09.714Z,12.07
2022-10-18T13:32:35.476Z,12.50
2022-10-18T13:37:38.074Z,12.03
2022-10-18T13:42:40.584Z,12.30
2022-10-18T13:47:43.023Z,13.47
2022-10-18T13:53:04.392Z,14.33
2022-10-18T13:58:18.929Z,15.77
2022-10-18T14:03:57.546Z,18.07
2022-10-18T14:09:19.370Z,14.67
2022-10-18T14:14:45.655Z,13.73
2022-10-18T14:20:04.544Z,18.30
2022-10-18T14:25:29.959Z,19.53
2022-10-18T14:30:32.666Z,19.53
2022-10-18T14:35:35.827Z,19.23
2022-10-18T14:40:40.653Z,19.67
2022-10-18T14:45:43.391Z,24.67
2022-10-18T14:50:59.348Z,18.77
2022-10-18T14:56:05.620Z,30.53
2022-10-18T15:01:08.217Z,35.10
2022-10-18T15:06:20.287Z,24.10
2022-10-18T15:11:24.208Z,29.37
2022-10-18T15:16:29.675Z,22.63
2022-10-18T15:21:33.323Z,25.47
2022-10-18T15:26:35.891Z,33.13
2022-10-18T15:31:43.023Z,22.40
2022-10-18T15:36:46.745Z,22.17
2022-10-18T15:42:01.126Z,22.93
2022-10-18T15:47:12.529Z,25.00
2022-10-18T15:52:37.439Z,23.43
2022-10-18T15:57:40.558Z,21.40
2022-10-18T16:02:43.051Z,19.93
2022-10-18T16:07:45.476Z,19.10
2022-10-18T16:12:47.976Z,18.93
2022-10-18T16:17:51.008Z,17.40
2022-10-18T16:22:53.432Z,16.03
2022-10-18T16:27:55.882Z,17.63
2022-10-18T16:32:58.299Z,13.67
2022-10-18T16:38:00.632Z,14.40
2022-10-18T16:43:03.070Z,17.63
2022-10-18T16:48:05.871Z,14.37
2022-10-18T16:53:08.402Z,17.83
2022-10-18T16:58:20.674Z,17.10
2022-10-18T17:03:24.334Z,15.93
2022-10-18T17:08:28.173Z,16.60
2022-10-18T17:13:30.592Z,17.00
2022-10-18T17:18:33.042Z,19.20
2022-10-18T17:23:35.481Z,18.53
2022-10-18T17:28:38.516Z,18.60
2022-10-18T17:33:41.436Z,18.40
2022-10-18T17:38:44.026Z,15.83
2022-10-18T17:43:48.261Z,15.47
2022-10-18T17:48:50.898Z,16.67
2022-10-18T17:53:54.335Z,20.87
2022-10-18T17:58:56.743Z,12.67
2022-10-18T18:04:01.301Z,15.47
2022-10-18T18:09:07.834Z,10.90
2022-10-18T18:14:12.061Z,15.13
2022-10-18T18:19:15.842Z,12.43
2022-10-18T18:24:24.573Z,10.07
2022-10-18T18:29:28.100Z,12.60
2022-10-18T18:34:30.724Z,13.70
2022-10-18T18:39:35.818Z,15.63
2022-10-18T18:44:38.272Z,23.53
2022-10-18T18:49:41.128Z,33.33
2022-10-18T18:54:43.585Z,15.23
2022-10-18T18:59:46.041Z,16.10
2022-10-18T19:04:48.481Z,14.07
2022-10-18T19:09:51.027Z,15.40
2022-10-18T19:14:53.387Z,16.67
2022-10-18T19:19:55.725Z,23.00
2022-10-18T19:24:58.187Z,18.70
2022-10-18T19:30:00.556Z,23.17
2022-10-18T19:35:03.134Z,19.40
2022-10-18T19:40:06.348Z,27.40
2022-10-18T19:45:09.254Z,26.73
2022-10-18T19:50:11.654Z,21.80
2022-10-18T19:55:14.273Z,26.27
2022-10-18T20:00:19.372Z,21.47
2022-10-18T20:05:22.173Z,29.67
2022-10-18T20:10:24.706Z,22.70
2022-10-18T20:15:27.914Z,24.27
2022-10-18T20:20:30.626Z,21.63
2022-10-18T20:25:33.007Z,21.97
2022-10-18T20:30:35.431Z,23.57
2022-10-18T20:35:37.903Z,25.43
2022-10-18T20:40:40.347Z,24.17
2022-10-18T20:45:42.829Z,20.03
2022-10-18T20:50:45.285Z,24.60
2022-10-18T20:55:49.992Z,24.70
2022-10-18T21:00:52.528Z,22.33
2022-10-18T21:05:56.100Z,25.93
2022-10-18T21:11:01.454Z,27.50
2022-10-18T21:16:04.997Z,24.27
2022-10-18T21:21:33.887Z,28.53
2022-10-18T21:26:36.908Z,29.20
2022-10-18T21:31:40.878Z,23.67
2022-10-18T21:36:44.525Z,30.13
2022-10-18T21:41:47.370Z,22.30
2022-10-18T21:46:50.844Z,27.67
2022-10-18T21:51:53.539Z,22.47
2022-10-18T21:56:56.436Z,21.07
2022-10-18T22:02:01.412Z,19.20
2022-10-18T22:07:04.974Z,20.00
2022-10-18T22:12:10.737Z,21.07
2022-10-18T22:17:13.775Z,20.40
2022-10-18T22:22:16.542Z,22.77
2022-10-18T22:27:19.305Z,17.10
2022-10-18T22:32:22.090Z,27.93
2022-10-18T22:37:24.833Z,19.63
2022-10-18T22:42:27.604Z,21.83
2022-10-18T22:47:30.381Z,20.03
2022-10-18T22:52:33.080Z,25.60
2022-10-18T22:57:36.110Z,23.00
2022-10-18T23:02:38.550Z,20.50
2022-10-18T23:07:41.007Z,23.67
2022-10-18T23:12:43.365Z,23.70
2022-10-18T23:17:45.774Z,18.70
2022-10-18T23:22:48.342Z,20.60
2022-10-18T23:27:50.700Z,26.70
2022-10-18T23:32:53.093Z,22.00
2022-10-18T23:37:55.448Z,27.07
2022-10-18T23:42:57.907Z,22.03
2022-10-18T23:48:00.757Z,31.27
2022-10-18T23:53:03.560Z,21.30
2022-10-18T23:58:06.410Z,24.97
